createdAt,value
2023-02-12T00:00:52.900Z,1.65
2023-02-12T00:03:44.005Z,0.30
2023-02-12T00:06:26.939Z,1.65
2023-02-12T00:09:09.597Z,0.75
2023-02-12T00:12:00.607Z,0.03
2023-02-12T00:14:39.953Z,0.95
2023-02-12T00:17:30.776Z,0.82
2023-02-12T00:20:10.354Z,0.75
2023-02-12T00:23:01.638Z,1.20
2023-02-12T00:25:42.585Z,0.65
2023-02-12T00:28:33.756Z,1.45
2023-02-12T00:31:34.671Z,1.48
2023-02-12T00:34:17.416Z,1.00
2023-02-12T00:36:59.630Z,0.20
2023-02-12T00:39:41.972Z,1.05
2023-02-12T00:42:24.609Z,0.90
2023-02-12T00:45:06.940Z,1.02
2023-02-12T00:48:01.471Z,0.77
2023-02-12T00:50:56.552Z,0.95
2023-02-12T00:53:38.797Z,1.05
2023-02-12T00:56:20.555Z,2.33
2023-02-12T00:59:02.647Z,0.82
2023-02-12T01:01:56.712Z,0.68
2023-02-12T01:04:38.680Z,0.03
2023-02-12T01:07:29.699Z,0.62
2023-02-12T01:10:11.746Z,1.12
2023-02-12T01:13:05.694Z,0.77
2023-02-12T01:15:44.825Z,0.57
2023-02-12T01:18:26.584Z,1.58
2023-02-12T01:21:14.456Z,0.68
2023-02-12T01:24:06.066Z,0.55
2023-02-12T01:26:45.823Z,0.62
2023-02-12T01:29:37.178Z,0.45
2023-02-12T01:32:19.780Z,0.30
2023-02-12T01:35:01.619Z,2.00
2023-02-12T01:37:43.856Z,1.55
2023-02-12T01:40:25.588Z,0.05
2023-02-12T01:43:12.006Z,0.35
2023-02-12T01:46:08.384Z,0.62
2023-02-12T01:48:48.178Z,3.17
2023-02-12T01:51:40.056Z,0.70
2023-02-12T01:54:21.058Z,2.33
2023-02-12T02:00:55.806Z,0.73
2023-02-12T02:03:52.945Z,0.25
2023-02-12T02:06:36.062Z,0.10
2023-02-12T02:09:30.258Z,1.37
2023-02-12T02:12:37.561Z,1.30
2023-02-12T02:15:19.618Z,0.32
2023-02-12T02:18:09.195Z,0.68
2023-02-12T02:21:18.504Z,1.20
2023-02-12T02:24:13.340Z,0.30
2023-02-12T02:27:16.062Z,0.93
2023-02-12T02:29:55.630Z,0.90
2023-02-12T02:33:04.054Z,1.87
2023-02-12T02:35:52.726Z,2.17
2023-02-12T02:39:16.401Z,1.75
2023-02-12T02:42:11.576Z,0.43
2023-02-12T02:44:56.171Z,1.42
2023-02-12T02:47:54.321Z,0.80
2023-02-12T02:53:10.966Z,0.50
2023-02-12T02:55:49.082Z,1.48
2023-02-12T02:58:27.568Z,0.75
2023-02-12T03:01:02.546Z,1.87
2023-02-12T03:04:04.359Z,0.93
2023-02-12T03:06:40.606Z,5.55
2023-02-12T03:09:34.946Z,1.10
2023-02-12T03:12:23.496Z,1.02
2023-02-12T03:15:23.551Z,1.45
2023-02-12T03:17:51.784Z,1.80
2023-02-12T03:20:49.513Z,0.80
2023-02-12T03:23:37.869Z,2.28
2023-02-12T03:26:39.681Z,0.37
2023-02-12T03:29:18.957Z,1.37
2023-02-12T03:32:44.829Z,0.37
2023-02-12T03:35:52.767Z,0.88
2023-02-12T03:38:51.604Z,2.22
2023-02-12T03:42:05.966Z,0.45
2023-02-12T03:44:53.311Z,3.03
2023-02-12T03:47:46.709Z,0.20
2023-02-12T03:50:55.316Z,1.40
2023-02-12T03:53:37.681Z,1.77
2023-02-12T03:56:41.819Z,1.23
2023-02-12T03:59:24.896Z,2.30
2023-02-12T04:02:17.343Z,0.93
2023-02-12T04:05:24.566Z,0.70
2023-02-12T04:08:07.004Z,0.75
2023-02-12T04:11:13.917Z,0.50
2023-02-12T04:14:08.835Z,1.65
2023-02-12T04:17:18.337Z,0.82
2023-02-12T04:20:38.300Z,2.15
2023-02-12T04:23:48.353Z,2.85
2023-02-12T04:26:37.756Z,2.42
2023-02-12T04:29:50.521Z,1.40
2023-02-12T04:32:41.227Z,1.67
2023-02-12T04:35:41.030Z,0.93
2023-02-12T04:38:27.100Z,1.12
2023-02-12T04:41:28.900Z,1.60
2023-02-12T04:44:16.013Z,1.40
2023-02-12T04:46:58.889Z,0.82
2023-02-12T04:49:46.744Z,1.87
2023-02-12T04:52:28.780Z,2.15
2023-02-12T04:55:22.467Z,0.13
2023-02-12T04:58:18.477Z,0.43
2023-02-12T05:01:10.578Z,0.60
2023-02-12T05:03:49.787Z,1.12
2023-02-12T05:06:40.965Z,1.80
2023-02-12T05:09:21.265Z,0.50
2023-02-12T05:12:03.597Z,1.25
2023-02-12T05:14:45.598Z,1.90
2023-02-12T05:17:27.639Z,1.70
2023-02-12T05:20:21.358Z,1.30
2023-02-12T05:23:03.691Z,1.02
2023-02-12T05:25:55.183Z,1.58
2023-02-12T05:28:23.449Z,0.10
2023-02-12T05:30:51.482Z,0.70
2023-02-12T05:33:19.235Z,1.85
2023-02-12T05:35:47.000Z,1.42
2023-02-12T05:38:34.903Z,1.50
2023-02-12T05:41:09.221Z,0.62
2023-02-12T05:43:37.225Z,2.28
2023-02-12T05:46:06.623Z,2.45
2023-02-12T05:48:34.927Z,1.35
2023-02-12T05:51:39.305Z,0.85
2023-02-12T05:54:20.823Z,1.48
2023-02-12T05:56:50.729Z,0.75
2023-02-12T05:59:22.046Z,2.95
2023-02-12T06:02:13.539Z,0.73
2023-02-12T06:05:04.794Z,0.62
2023-02-12T06:07:43.860Z,1.90
2023-02-12T06:10:35.712Z,0.20
2023-02-12T06:17:38.256Z,1.62
2023-02-12T06:20:20.490Z,1.12
2023-02-12T06:23:14.356Z,0.82
2023-02-12T06:25:57.735Z,0.20
2023-02-12T06:28:39.580Z,0.55
2023-02-12T06:31:27.485Z,1.20
2023-02-12T06:34:18.670Z,1.30
2023-02-12T06:36:57.714Z,0.75
2023-02-12T06:39:49.570Z,1.17
2023-02-12T06:42:33.107Z,1.00
2023-02-12T06:45:22.979Z,0.90
2023-02-12T06:48:05.845Z,1.00
2023-02-12T06:50:56.868Z,1.52
2023-02-12T06:53:36.299Z,0.55
2023-02-12T06:56:27.568Z,0.35
2023-02-12T06:59:06.763Z,0.57
2023-02-12T07:04:17.559Z,0.65
2023-02-12T07:07:11.436Z,0.88
2023-02-12T07:09:50.815Z,1.17
2023-02-12T07:12:18.867Z,0.50
2023-02-12T07:14:46.849Z,0.43
2023-02-12T07:17:14.437Z,0.55
2023-02-12T07:19:42.636Z,1.65
2023-02-12T07:22:10.105Z,1.50
2023-02-12T07:24:39.262Z,0.77
2023-02-12T07:27:08.397Z,0.60
2023-02-12T07:29:40.438Z,1.85
2023-02-12T07:32:19.383Z,0.68
2023-02-12T07:35:07.478Z,0.20
2023-02-12T07:38:00.083Z,0.75
2023-02-12T07:40:32.951Z,0.52
2023-02-12T07:43:06.912Z,0.30
2023-02-12T07:45:36.354Z,0.00
2023-02-12T07:48:07.167Z,0.37
2023-02-12T07:51:05.094Z,0.50
2023-02-12T07:53:34.486Z,0.60
2023-02-12T07:56:17.545Z,0.62
2023-02-12T07:58:54.265Z,0.25
2023-02-12T08:01:28.715Z,0.50
2023-02-12T08:04:04.284Z,1.02
2023-02-12T08:06:35.957Z,0.80
2023-02-12T08:09:27.802Z,0.90
2023-02-12T08:11:59.112Z,0.13
2023-02-12T08:14:29.663Z,0.55
2023-02-12T08:17:01.192Z,0.68
2023-02-12T08:19:28.961Z,0.65
2023-02-12T08:22:06.576Z,0.93
2023-02-12T08:24:34.204Z,1.55
2023-02-12T08:27:02.449Z,0.52
2023-02-12T08:29:41.236Z,0.75
2023-02-12T08:32:22.648Z,0.65
2023-02-12T08:34:55.815Z,0.30
2023-02-12T08:37:26.827Z,0.77
2023-02-12T08:40:00.005Z,0.95
2023-02-12T08:42:28.001Z,1.27
2023-02-12T08:44:55.911Z,0.03
2023-02-12T08:47:23.439Z,0.75
2023-02-12T08:49:51.170Z,0.52
2023-02-12T08:52:19.714Z,0.73
2023-02-12T08:54:47.219Z,0.30
2023-02-12T08:57:14.856Z,0.70
2023-02-12T08:59:42.735Z,1.08
2023-02-12T09:02:11.249Z,0.68
2023-02-12T09:04:40.249Z,1.92
2023-02-12T09:07:10.718Z,1.05
2023-02-12T09:09:38.594Z,0.10
2023-02-12T09:12:06.148Z,1.10
2023-02-12T09:14:34.239Z,0.70
2023-02-12T09:17:01.942Z,1.17
2023-02-12T09:19:29.594Z,0.03
2023-02-12T09:21:57.680Z,0.95
2023-02-12T09:24:27.854Z,0.55
2023-02-12T09:26:55.947Z,1.15
2023-02-12T09:29:24.037Z,0.52
2023-02-12T09:31:51.867Z,0.22
2023-02-12T09:34:20.980Z,1.42
2023-02-12T09:36:49.066Z,0.65
2023-02-12T09:39:16.540Z,0.90
2023-02-12T09:42:02.828Z,0.93
2023-02-12T09:44:49.056Z,0.70
2023-02-12T09:47:31.286Z,0.88
2023-02-12T09:50:18.054Z,0.45
2023-02-12T09:52:45.707Z,1.00
2023-02-12T09:55:18.280Z,1.52
2023-02-12T09:57:46.363Z,1.65
2023-02-12T10:00:20.457Z,0.30
2023-02-12T10:02:52.179Z,1.20
2023-02-12T10:08:14.683Z,0.90
2023-02-12T10:10:52.252Z,0.85
2023-02-12T10:13:36.724Z,0.35
2023-02-12T10:16:38.529Z,1.23
2023-02-12T10:19:20.094Z,0.80
2023-02-12T10:22:04.045Z,0.40
2023-02-12T10:25:12.538Z,0.80
2023-02-12T10:27:45.286Z,0.35
2023-02-12T10:30:20.551Z,0.25
2023-02-12T10:32:51.981Z,1.52
2023-02-12T10:35:21.636Z,0.37
2023-02-12T10:38:05.249Z,0.20
2023-02-12T10:40:34.200Z,0.37
2023-02-12T10:43:02.586Z,1.30
2023-02-12T10:45:39.835Z,1.20
2023-02-12T10:48:20.736Z,1.65
2023-02-12T10:51:00.481Z,0.22
2023-02-12T10:53:42.915Z,0.20
2023-02-12T10:56:20.442Z,0.75
2023-02-12T10:58:57.193Z,0.90
2023-02-12T11:01:28.892Z,1.23
2023-02-12T11:04:00.360Z,1.40
2023-02-12T11:06:30.820Z,0.60
2023-02-12T11:08:59.720Z,0.15
2023-02-12T11:11:32.122Z,0.47
2023-02-12T11:14:03.646Z,0.55
2023-02-12T11:16:32.959Z,0.70
2023-02-12T11:19:24.528Z,0.70
2023-02-12T11:21:52.708Z,0.57
2023-02-12T11:24:21.723Z,1.17
2023-02-12T11:26:49.646Z,0.43
2023-02-12T11:29:24.595Z,0.98
2023-02-12T11:32:08.939Z,0.17
2023-02-12T11:34:37.079Z,0.75
2023-02-12T11:37:14.678Z,0.55
2023-02-12T11:39:46.877Z,0.28
2023-02-12T11:42:20.478Z,0.75
2023-02-12T11:44:51.495Z,2.65
2023-02-12T11:47:30.803Z,0.80
2023-02-12T11:50:00.551Z,0.00
2023-02-12T11:52:30.058Z,0.40
2023-02-12T11:55:24.759Z,1.62
2023-02-12T11:57:55.129Z,0.10
2023-02-12T12:00:37.147Z,0.15
2023-02-12T12:05:37.386Z,0.73
2023-02-12T12:08:16.758Z,0.00
2023-02-12T12:10:48.758Z,0.10
2023-02-12T12:16:07.502Z,0.52
2023-02-12T12:19:07.671Z,0.10
2023-02-12T12:21:54.190Z,1.23
2023-02-12T12:24:28.733Z,0.45
2023-02-12T12:27:04.824Z,0.25
2023-02-12T12:29:46.246Z,0.47
2023-02-12T12:32:16.023Z,0.37
2023-02-12T12:34:44.420Z,0.85
2023-02-12T12:37:26.013Z,0.43
2023-02-12T12:40:13.774Z,1.20
2023-02-12T12:42:59.955Z,0.45
2023-02-12T12:45:53.227Z,1.33
2023-02-12T12:51:23.817Z,0.80
2023-02-12T12:54:24.659Z,0.30
2023-02-12T12:57:16.896Z,1.20
2023-02-12T12:59:55.006Z,0.52
2023-02-12T13:03:05.302Z,0.75
2023-02-12T13:06:06.151Z,0.00
2023-02-12T13:08:44.209Z,0.10
2023-02-12T13:11:30.549Z,0.08
2023-02-12T13:14:11.465Z,0.20
2023-02-12T13:16:56.640Z,1.10
2023-02-12T13:19:54.181Z,1.33
2023-02-12T13:22:27.701Z,0.55
2023-02-12T13:25:01.823Z,0.47
2023-02-12T13:27:34.633Z,0.73
2023-02-12T13:30:15.701Z,0.75
2023-02-12T13:32:46.960Z,1.48
2023-02-12T13:35:20.517Z,1.07
2023-02-12T13:37:50.647Z,4.07
2023-02-12T13:40:22.864Z,1.85
2023-02-12T13:42:53.415Z,0.95
2023-02-12T13:45:25.587Z,1.75
2023-02-12T13:47:59.933Z,1.25
2023-02-12T13:50:46.089Z,1.33
2023-02-12T13:53:25.458Z,1.30
2023-02-12T13:56:17.379Z,2.17
2023-02-12T13:58:53.353Z,1.12
2023-02-12T14:01:39.670Z,2.17
2023-02-12T14:04:28.592Z,3.12
2023-02-12T14:07:06.727Z,1.67
2023-02-12T14:09:40.614Z,1.58
2023-02-12T14:12:17.096Z,2.08
2023-02-12T14:14:47.535Z,2.12
2023-02-12T14:17:33.708Z,2.87
2023-02-12T14:20:22.154Z,1.87
2023-02-12T14:22:50.489Z,1.25
2023-02-12T14:25:40.029Z,1.45
2023-02-12T14:28:20.659Z,2.62
2023-02-12T14:31:20.804Z,1.45
2023-02-12T14:33:53.480Z,1.33
2023-02-12T14:36:34.073Z,1.55
2023-02-12T14:39:26.373Z,1.50
2023-02-12T14:42:06.851Z,1.48
2023-02-12T14:44:44.474Z,2.60
2023-02-12T14:47:29.307Z,1.98
2023-02-12T14:50:02.192Z,2.53
2023-02-12T14:52:38.860Z,2.78
2023-02-12T14:55:18.061Z,3.03
2023-02-12T14:57:46.687Z,3.37
2023-02-12T15:00:17.190Z,2.17
2023-02-12T15:02:50.052Z,1.25
2023-02-12T15:05:23.515Z,1.80
2023-02-12T15:07:55.745Z,2.50
2023-02-12T15:10:27.973Z,2.53
2023-02-12T15:13:31.553Z,1.70
2023-02-12T15:16:09.351Z,2.30
2023-02-12T15:18:49.759Z,3.80
2023-02-12T15:21:27.749Z,1.95
2023-02-12T15:24:07.271Z,1.92
2023-02-12T15:26:41.587Z,1.90
2023-02-12T15:29:25.826Z,1.98
2023-02-12T15:32:05.999Z,4.28
2023-02-12T15:34:36.209Z,4.72
2023-02-12T15:37:05.252Z,4.43
2023-02-12T15:39:44.791Z,2.03
2023-02-12T15:42:30.983Z,2.62
2023-02-12T15:45:14.140Z,2.50
2023-02-12T15:47:43.354Z,4.43
2023-02-12T15:50:15.212Z,3.22
2023-02-12T15:55:17.879Z,7.35
2023-02-12T15:57:58.291Z,5.82
2023-02-12T16:00:31.809Z,7.75
2023-02-12T16:02:59.612Z,5.60
2023-02-12T16:05:27.608Z,5.93
2023-02-12T16:07:55.576Z,5.95
2023-02-12T16:10:23.721Z,4.00
2023-02-12T16:12:51.800Z,4.85
2023-02-12T16:15:25.207Z,4.75
2023-02-12T16:17:59.763Z,4.37
2023-02-12T16:20:30.865Z,3.87
2023-02-12T16:22:59.805Z,4.00
2023-02-12T16:25:29.798Z,2.97
2023-02-12T16:28:18.614Z,5.68
2023-02-12T16:30:48.409Z,2.78
2023-02-12T16:33:52.669Z,5.93
2023-02-12T16:36:20.336Z,3.53
2023-02-12T16:38:55.364Z,5.53
2023-02-12T16:41:32.769Z,6.10
2023-02-12T16:44:00.270Z,4.78
2023-02-12T16:46:33.074Z,6.15
2023-02-12T16:49:02.427Z,4.93
2023-02-12T16:51:35.736Z,7.93
2023-02-12T16:54:05.040Z,6.87
2023-02-12T16:56:38.702Z,6.28
2023-02-12T16:59:06.376Z,7.25
2023-02-12T17:01:36.121Z,6.00
2023-02-12T17:04:09.079Z,5.30
2023-02-12T17:06:37.028Z,5.80
2023-02-12T17:09:04.539Z,5.43
2023-02-12T17:11:32.055Z,4.07
2023-02-12T17:13:59.914Z,5.60
2023-02-12T17:16:32.055Z,5.65
2023-02-12T17:19:00.574Z,6.65
2023-02-12T17:21:38.502Z,7.18
2023-02-12T17:24:21.121Z,5.90
2023-02-12T17:26:50.652Z,6.28
2023-02-12T17:29:20.340Z,6.65
2023-02-12T17:31:48.404Z,4.93
2023-02-12T17:34:16.796Z,9.05
2023-02-12T17:36:44.620Z,7.28
2023-02-12T17:39:13.565Z,6.07
2023-02-12T17:41:44.275Z,6.97
2023-02-12T17:44:14.032Z,3.80
2023-02-12T17:46:42.457Z,6.50
2023-02-12T17:49:10.293Z,5.22
2023-02-12T17:51:38.545Z,3.83
2023-02-12T17:54:06.222Z,4.30
2023-02-12T17:56:33.916Z,3.72
2023-02-12T17:59:01.890Z,3.12
2023-02-12T18:01:29.420Z,5.00
2023-02-12T18:03:58.712Z,6.50
2023-02-12T18:06:29.630Z,7.05
2023-02-12T18:08:58.977Z,5.50
2023-02-12T18:11:27.811Z,5.72
2023-02-12T18:13:57.107Z,7.05
2023-02-12T18:16:28.101Z,4.45
2023-02-12T18:18:57.124Z,6.62
2023-02-12T18:21:24.975Z,5.35
2023-02-12T18:23:53.909Z,7.97
2023-02-12T18:26:21.972Z,5.40
2023-02-12T18:28:50.077Z,6.07
2023-02-12T18:31:19.689Z,6.93
2023-02-12T18:33:47.334Z,4.35
2023-02-12T18:36:17.508Z,4.93
2023-02-12T18:38:47.372Z,4.12
2023-02-12T18:41:17.675Z,3.08
2023-02-12T18:43:45.834Z,4.35
2023-02-12T18:46:16.688Z,3.90
2023-02-12T18:48:44.904Z,2.75
2023-02-12T18:51:38.323Z,5.05
2023-02-12T18:54:08.784Z,11.32
2023-02-12T18:56:41.047Z,3.80
2023-02-12T18:59:09.295Z,4.18
2023-02-12T19:01:37.082Z,4.32
2023-02-12T19:04:07.608Z,5.50
2023-02-12T19:06:40.114Z,5.12
2023-02-12T19:09:08.579Z,2.78
2023-02-12T19:11:36.972Z,5.78
2023-02-12T19:14:04.919Z,4.55
2023-02-12T19:16:33.508Z,5.05
2023-02-12T19:19:03.022Z,6.65
2023-02-12T19:21:30.891Z,6.03
2023-02-12T19:24:00.395Z,5.85
2023-02-12T19:26:29.861Z,4.55
2023-02-12T19:28:58.128Z,2.92
2023-02-12T19:31:35.238Z,3.75
2023-02-12T19:34:05.819Z,4.65
2023-02-12T19:36:35.431Z,6.22
2023-02-12T19:39:05.885Z,7.70
2023-02-12T19:41:43.225Z,5.50
2023-02-12T19:44:18.840Z,6.90
2023-02-12T19:46:47.705Z,3.78
2023-02-12T19:49:26.244Z,6.97
2023-02-12T19:51:53.847Z,5.97
2023-02-12T19:54:22.848Z,2.62
2023-02-12T19:56:51.436Z,3.90
2023-02-12T19:59:27.226Z,4.50
2023-02-12T20:01:58.015Z,5.15
2023-02-12T20:04:25.940Z,4.43
2023-02-12T20:06:53.454Z,2.50
2023-02-12T20:09:21.913Z,4.07
2023-02-12T20:11:50.292Z,2.67
2023-02-12T20:14:18.224Z,2.72
2023-02-12T20:16:46.895Z,2.50
2023-02-12T20:19:21.077Z,2.42
2023-02-12T20:21:54.301Z,4.70
2023-02-12T20:24:27.452Z,2.15
2023-02-12T20:26:58.585Z,5.45
2023-02-12T20:29:26.455Z,3.72
2023-02-12T20:31:54.389Z,4.03
2023-02-12T20:34:22.389Z,2.83
2023-02-12T20:36:50.364Z,4.53
2023-02-12T20:39:19.649Z,5.75
2023-02-12T20:41:49.216Z,3.25
2023-02-12T20:44:20.018Z,2.10
2023-02-12T20:46:50.109Z,6.30
2023-02-12T20:49:20.175Z,5.45
2023-02-12T20:51:50.200Z,4.30
2023-02-12T20:54:18.132Z,4.28
2023-02-12T20:56:46.050Z,1.02
2023-02-12T20:59:13.627Z,0.70
2023-02-12T21:01:41.965Z,2.12
2023-02-12T21:04:12.418Z,2.60
2023-02-12T21:06:40.498Z,8.13
2023-02-12T21:09:09.830Z,9.50
2023-02-12T21:11:39.967Z,7.03
2023-02-12T21:14:21.196Z,1.80
2023-02-12T21:16:50.485Z,2.10
2023-02-12T21:19:18.827Z,2.35
2023-02-12T21:21:47.861Z,1.90
2023-02-12T21:24:18.291Z,4.22
2023-02-12T21:26:45.809Z,1.20
2023-02-12T21:29:13.747Z,2.30
2023-02-12T21:31:43.839Z,3.40
2023-02-12T21:34:18.248Z,3.05
2023-02-12T21:36:47.382Z,4.87
2023-02-12T21:39:25.019Z,2.35
2023-02-12T21:41:58.109Z,6.25
2023-02-12T21:44:26.296Z,3.47
2023-02-12T21:46:54.945Z,3.30
2023-02-12T21:49:27.626Z,2.15
2023-02-12T21:52:04.344Z,2.65
2023-02-12T21:54:31.995Z,3.40
2023-02-12T21:57:00.321Z,3.58
2023-02-12T21:59:30.686Z,0.82
2023-02-12T22:02:00.663Z,1.37
2023-02-12T22:04:29.081Z,1.00
2023-02-12T22:06:58.014Z,2.22
2023-02-12T22:09:25.918Z,2.03
2023-02-12T22:11:54.778Z,3.42
2023-02-12T22:14:22.458Z,4.10
2023-02-12T22:16:50.368Z,1.48
2023-02-12T22:19:18.946Z,0.70
2023-02-12T22:21:46.547Z,0.47
2023-02-12T22:24:15.975Z,2.55
2023-02-12T22:26:44.198Z,2.62
2023-02-12T22:29:14.287Z,2.72
2023-02-12T22:31:43.514Z,2.22
2023-02-12T22:34:14.393Z,5.32
2023-02-12T22:36:43.117Z,2.30
2023-02-12T22:39:13.112Z,4.47
2023-02-12T22:41:42.481Z,3.22
2023-02-12T22:44:12.360Z,1.42
2023-02-12T22:46:41.935Z,4.60
2023-02-12T22:49:10.144Z,2.25
2023-02-12T22:51:39.871Z,2.17
2023-02-12T22:54:12.517Z,4.35
2023-02-12T22:56:40.466Z,1.92
2023-02-12T22:59:10.135Z,3.15
2023-02-12T23:01:39.671Z,0.93
2023-02-12T23:04:07.759Z,2.30
2023-02-12T23:06:36.182Z,1.62
2023-02-12T23:09:04.887Z,0.98
2023-02-12T23:11:33.141Z,2.40
2023-02-12T23:14:01.480Z,1.98
2023-02-12T23:16:29.388Z,3.50
2023-02-12T23:18:58.701Z,3.05
2023-02-12T23:21:27.874Z,2.53
2023-02-12T23:23:56.767Z,1.70
2023-02-12T23:26:24.997Z,2.05
2023-02-12T23:28:53.170Z,2.85
2023-02-12T23:31:21.119Z,2.15
2023-02-12T23:33:48.771Z,2.28
2023-02-12T23:36:16.863Z,3.33
2023-02-12T23:38:44.848Z,2.20
2023-02-12T23:41:12.480Z,3.45
2023-02-12T23:43:40.494Z,1.20
2023-02-12T23:46:09.570Z,1.70
2023-02-12T23:48:37.282Z,1.37
2023-02-12T23:51:05.397Z,1.35
2023-02-12T23:53:34.226Z,1.35
2023-02-12T23:56:01.749Z,2.12
2023-02-12T23:58:29.482Z,1.00
